Juneau, AK

5:48 AM AKDT on May 25, 2015 (GMT -0800)
Dimond Park | | Change Station
CLOSE
Current Station
Personal Weather Station
Location: Juneau, AK
Elevation: 26 ft
Nearby Weather Stations

Elev 26 ft 58.38 °N, 134.59 °W | Updated 10 minutes ago

Scattered Clouds
Scattered Clouds
46.0 °F
Feels Like 46 °F
N
1.1
Wind Variable Wind from SE

Today
High -- | Low -- °F
--% Chance of Precip.
Yesterday
High -- | Low -- °F
Precip. -- in
4:12 AM 9:38 PM
Waxing Crescent, 49% visible
Pressure 30.10 in
Visibility 10.0 miles
Clouds Few 5500 ft
Scattered Clouds 12000 ft
Scattered Clouds 16000 ft
Windchill 46 °F
Dew Point 41 °F
Humidity 83%
Rainfall 0.00 in
Snow Depth Not available.
UV 0 out of 12
Pollen Not available.
Air Quality Not available.
Flu Activity Local Activity
METAR PAJN 251253Z 00000KT 10SM FEW055 SCT120 SCT160 09/07 A3010 RMK AO2 SLP192 T00940067 $

More Conditions Fewer Conditions

Pressure 30.10 in
Visibility 10.0 miles
Clouds Few 5500 ft
Scattered Clouds 12000 ft
Scattered Clouds 16000 ft
Windchill 46 °F
Dew Point 41 °F
Humidity 83%
Rainfall 0.00 in
Snow Depth Not available.
UV 0 out of 12
Pollen Not available.
Air Quality Not available.
Flu Activity Local Activity
METAR PAJN 251253Z 00000KT 10SM FEW055 SCT120 SCT160 09/07 A3010 RMK AO2 SLP192 T00940067 $

More Conditions Fewer Conditions

10-Day Weather Forecast

Almanac

Astronomy

May. 25, 2015 Rise Set
Actual Time
Civil Twilight
Nautical Twilight
Astronomical Twilight
Moon
Length of Visible Light
Length of Day
Tomorrow will be .
, % of the Moon is Illuminated

Today's Extremes

State Highs State Lows

Community

WunderPhotos

Upload Photos

1,824,009 photos uploaded!

WunderBlogs® & News

Nearby

Air Quality

  Air Quality AQ Index Pollutant
Not available.

Snow Depth

Station Depth Elevation

Earthquake Activity

City Distance Mag. Time & Date
Minimum magnitude displayed is 2.5.

Coastal Water Temperatures

Place Temperature

Stations

Nearby Weather Stations

Station Location Temp. Windchill Dew Point Humidity Wind Precip. Elev Updated Type